Time,TemperatureF,DewpointF,PressureIn,WindDirection,WindDirectionDegrees,WindSpeedMPH,WindSpeedGustMPH,Humidity,HourlyPrecipIn,Conditions,Clouds,dailyrainin,SoftwareType,DateUTC
2014-02-12 00:02:00,38.1,34.6,29.81,ENE,68,0.0,0.0,87,0.03,-RA,,0.00,WeatherDisplay:10.37,2014-02-12 08:02:00,
2014-02-12 00:07:00,38.1,34.6,29.80,ENE,68,0.0,0.0,87,0.03,-RA,,0.00,WeatherDisplay:10.37,2014-02-12 08:07:00,
2014-02-12 00:12:00,38.1,34.6,29.80,ENE,68,0.0,0.0,87,0.03,-RA,,0.00,WeatherDisplay:10.37,2014-02-12 08:12:00,
2014-02-12 00:17:00,37.9,34.4,29.80,ENE,68,2.3,2.3,87,0.00,-RA,,0.00,WeatherDisplay:10.37,2014-02-12 08:17:00,
2014-02-12 00:22:00,37.9,34.4,29.80,East,90,1.2,1.2,87,0.03,-RA,,0.03,WeatherDisplay:10.37,2014-02-12 08:22:00,
2014-02-12 00:27:00,38.1,34.6,29.78,NNE,22,2.0,2.0,87,0.03,-RA,,0.03,WeatherDisplay:10.37,2014-02-12 08:27:00,
2014-02-12 00:32:00,38.3,35.1,29.78,ENE,68,2.3,2.3,88,0.03,-RA,,0.03,WeatherDisplay:10.37,2014-02-12 08:32:00,
2014-02-12 00:37:00,38.3,35.1,29.78,ESE,112,2.3,2.3,88,0.03,-RA,,0.03,WeatherDisplay:10.37,2014-02-12 08:37:00,
2014-02-12 00:42:00,38.5,35.2,29.78,ENE,68,3.9,3.9,88,0.03,-RA,,0.03,WeatherDisplay:10.37,2014-02-12 08:42:00,
2014-02-12 00:47:00,38.7,35.4,29.75,East,90,4.6,4.6,88,0.03,-RA,,0.03,WeatherDisplay:10.37,2014-02-12 08:47:00,
2014-02-12 00:52:00,38.7,35.4,29.75,ENE,68,4.9,4.9,88,0.03,-RA,,0.03,WeatherDisplay:10.37,2014-02-12 08:52:00,
2014-02-12 00:57:00,38.8,35.6,29.75,ENE,68,3.5,3.5,88,0.03,-RA,,0.03,WeatherDisplay:10.37,2014-02-12 08:57:00,
2014-02-12 01:02:00,38.8,35.6,29.75,ENE,68,5.8,5.8,88,0.03,-RA,,0.03,WeatherDisplay:10.37,2014-02-12 09:02:00,
2014-02-12 01:07:00,38.7,35.4,29.72,ENE,68,2.3,2.9,88,0.03,-RA,,0.03,WeatherDisplay:10.37,2014-02-12 09:07:00,
2014-02-12 01:12:00,39.0,35.8,29.72,NE,45,2.3,2.6,88,0.03,-RA,,0.03,WeatherDisplay:10.37,2014-02-12 09:12:00,
2014-02-12 01:17:00,39.4,36.1,29.72,ENE,68,8.1,8.1,88,0.03,-RA,,0.03,WeatherDisplay:10.37,2014-02-12 09:17:00,
2014-02-12 01:22:00,39.4,36.1,29.72,SE,135,5.8,5.8,88,0.00,-RA,,0.03,WeatherDisplay:10.37,2014-02-12 09:22:00,
2014-02-12 01:27:00,39.7,36.8,29.70,NE,45,5.8,5.8,89,0.00,-RA,,0.03,WeatherDisplay:10.37,2014-02-12 09:27:00,
2014-02-12 01:32:00,40.1,37.1,29.70,East,90,4.6,4.9,89,0.00,-RA,,0.03,WeatherDisplay:10.37,2014-02-12 09:32:00,
2014-02-12 01:37:00,40.6,37.7,29.70,NE,45,9.2,9.2,89,0.00,-RA,,0.03,WeatherDisplay:10.37,2014-02-12 09:37:00,
2014-02-12 01:42:00,41.4,38.4,29.70,SE,135,5.2,6.0,89,0.00,-RA,,0.03,WeatherDisplay:10.37,2014-02-12 09:42:00,
2014-02-12 01:47:00,41.4,38.4,29.68,SE,135,4.6,4.7,89,0.00,-RA,,0.03,WeatherDisplay:10.37,2014-02-12 09:47:00,
2014-02-12 01:52:00,41.0,37.7,29.68,SE,135,4.5,4.5,88,0.00,-RA,,0.03,WeatherDisplay:10.37,2014-02-12 09:52:00,
2014-02-12 01:57:00,40.8,37.5,29.68,SE,135,5.8,5.8,88,0.00,-RA,,0.03,WeatherDisplay:10.37,2014-02-12 09:57:00,
2014-02-12 02:02:00,40.6,37.4,29.68,East,90,7.2,7.2,88,0.00,-RA,,0.03,WeatherDisplay:10.37,2014-02-12 10:02:00,
2014-02-12 02:07:00,40.6,37.4,29.66,ESE,112,8.1,8.1,88,0.00,-RA,,0.03,WeatherDisplay:10.37,2014-02-12 10:07:00,
2014-02-12 02:12:00,41.2,38.2,29.66,SE,135,5.8,5.8,89,0.00,-RA,,0.03,WeatherDisplay:10.37,2014-02-12 10:12:00,
2014-02-12 02:17:00,41.4,38.4,29.66,ESE,112,6.9,6.9,89,0.00,-RA,,0.03,WeatherDisplay:10.37,2014-02-12 10:17:00,
2014-02-12 02:22:00,41.9,38.9,29.66,SE,135,8.1,8.1,89,0.00,-RA,,0.03,WeatherDisplay:10.37,2014-02-12 10:22:00,
2014-02-12 02:27:00,42.3,39.2,29.64,ENE,68,8.1,8.1,89,0.00,-RA,,0.03,WeatherDisplay:10.37,2014-02-12 10:27:00,
2014-02-12 02:32:00,42.6,39.3,29.64,SSW,202,5.8,5.8,88,0.00,-RA,,0.03,WeatherDisplay:10.37,2014-02-12 10:32:00,
2014-02-12 02:37:00,43.0,39.7,29.64,SE,135,5.8,5.8,88,0.00,-RA,,0.03,WeatherDisplay:10.37,2014-02-12 10:37:00,
2014-02-12 02:42:00,43.5,40.2,29.64,ESE,112,4.6,4.6,88,0.00,-RA,,0.03,WeatherDisplay:10.37,2014-02-12 10:42:00,
2014-02-12 02:47:00,43.7,40.4,29.64,SE,135,5.8,5.8,88,0.00,-RA,,0.03,WeatherDisplay:10.37,2014-02-12 10:47:00,
2014-02-12 02:52:00,43.9,40.6,29.64,SE,135,3.5,4.7,88,0.00,-RA,,0.03,WeatherDisplay:10.37,2014-02-12 10:52:00,
2014-02-12 02:57:00,44.1,40.4,29.64,SE,135,6.9,6.9,87,0.00,-RA,,0.03,WeatherDisplay:10.37,2014-02-12 10:57:00,
2014-02-12 03:02:00,44.2,40.6,29.64,SE,135,4.6,5.2,87,0.00,-RA,,0.03,WeatherDisplay:10.37,2014-02-12 11:02:00,
2014-02-12 03:07:00,44.2,40.3,29.61,SE,135,5.8,5.8,86,0.00,-RA,,0.03,WeatherDisplay:10.37,2014-02-12 11:07:00,
2014-02-12 03:12:00,44.4,40.2,29.61,ESE,112,8.3,8.3,85,0.00,-RA,,0.03,WeatherDisplay:10.37,2014-02-12 11:12:00,
2014-02-12 03:17:00,44.1,39.8,29.61,ENE,68,9.2,9.2,85,0.00,-RA,,0.03,WeatherDisplay:10.37,2014-02-12 11:17:00,
2014-02-12 03:22:00,44.1,39.8,29.61,East,90,7.0,7.0,85,0.00,-RA,,0.03,WeatherDisplay:10.37,2014-02-12 11:22:00,
2014-02-12 03:27:00,44.1,39.8,29.59,East,90,6.9,6.9,85,0.00,-RA,,0.03,WeatherDisplay:10.37,2014-02-12 11:27:00,
2014-02-12 03:32:00,43.9,39.7,29.59,SSE,158,3.5,4.6,85,0.00,-RA,,0.03,WeatherDisplay:10.37,2014-02-12 11:32:00,
2014-02-12 03:37:00,44.1,39.8,29.59,ENE,68,6.9,6.9,85,0.00,-RA,,0.03,WeatherDisplay:10.37,2014-02-12 11:37:00,
2014-02-12 03:42:00,43.9,39.4,29.59,ESE,112,5.8,5.8,84,0.00,-RA,,0.03,WeatherDisplay:10.37,2014-02-12 11:42:00,
2014-02-12 03:47:00,44.1,39.5,29.59,SE,135,4.6,4.6,84,0.00,-RA,,0.03,WeatherDisplay:10.37,2014-02-12 11:47:00,
2014-02-12 03:52:00,43.7,39.2,29.59,SE,135,3.5,3.5,84,0.00,-RA,,0.03,WeatherDisplay:10.37,2014-02-12 11:52:00,
2014-02-12 03:57:00,43.7,39.2,29.59,SSE,158,4.6,4.6,84,0.00,-RA,,0.03,WeatherDisplay:10.37,2014-02-12 11:57:00,
2014-02-12 04:02:00,43.3,38.5,29.59,SSE,158,5.8,5.8,83,0.00,-RA,,0.03,WeatherDisplay:10.37,2014-02-12 12:02:00,
2014-02-12 04:07:00,43.3,38.8,29.59,SSE,158,5.8,5.8,84,0.00,-RA,,0.03,WeatherDisplay:10.37,2014-02-12 12:07:00,
2014-02-12 04:12:00,43.7,39.2,29.59,SSW,202,3.5,4.0,84,0.00,-RA,,0.03,WeatherDisplay:10.37,2014-02-12 12:12:00,
2014-02-12 04:17:00,44.2,39.7,29.59,SSE,158,6.9,6.9,84,0.00,-RA,,0.03,WeatherDisplay:10.37,2014-02-12 12:17:00,
2014-02-12 04:22:00,45.1,40.6,29.59,South,180,5.8,5.8,84,0.00,-RA,,0.03,WeatherDisplay:10.37,2014-02-12 12:22:00,
2014-02-12 04:27:00,45.3,40.5,29.61,SSW,202,4.6,4.6,83,0.00,-RA,,0.03,WeatherDisplay:10.37,2014-02-12 12:27:00,
2014-02-12 04:32:00,45.9,41.0,29.61,South,180,4.6,4.6,83,0.00,-RA,,0.03,WeatherDisplay:10.37,2014-02-12 12:32:00,
2014-02-12 04:37:00,46.2,41.0,29.61,SE,135,4.6,4.6,82,0.00,-RA,,0.03,WeatherDisplay:10.37,2014-02-12 12:37:00,
2014-02-12 04:42:00,45.9,40.7,29.61,SSW,202,5.6,5.6,82,0.00,-RA,,0.03,WeatherDisplay:10.37,2014-02-12 12:42:00,
2014-02-12 04:47:00,45.9,40.4,29.58,SSW,202,8.1,8.1,81,0.00,-RA,,0.03,WeatherDisplay:10.37,2014-02-12 12:47:00,
2014-02-12 04:52:00,46.9,41.4,29.58,SW,225,9.2,9.2,81,0.03,-RA,,0.06,WeatherDisplay:10.37,2014-02-12 12:52:00,
2014-02-12 04:57:00,47.5,41.9,29.58,SSW,202,15.0,15.0,81,0.03,-RA,,0.06,WeatherDisplay:10.37,2014-02-12 12:57:00,
2014-02-12 05:02:00,48.6,42.3,29.58,SSE,158,6.9,8.1,79,0.03,-RA,,0.06,WeatherDisplay:10.37,2014-02-12 13:02:00,
2014-02-12 05:07:00,48.7,42.2,29.56,West,270,8.1,8.1,78,0.03,-RA,,0.06,WeatherDisplay:10.37,2014-02-12 13:07:00,
2014-02-12 05:12:00,48.6,41.7,29.56,SW,225,15.1,15.1,77,0.03,-RA,,0.06,WeatherDisplay:10.37,2014-02-12 13:12:00,
2014-02-12 05:18:00,48.6,41.7,29.56,WSW,248,10.4,10.4,77,0.03,-RA,,0.06,WeatherDisplay:10.37,2014-02-12 13:18:00,
2014-02-12 05:23:00,48.9,42.0,29.56,SW,225,10.4,10.4,77,0.03,-RA,,0.06,WeatherDisplay:10.37,2014-02-12 13:23:00,
2014-02-12 05:28:00,49.1,41.9,29.58,SSE,158,9.2,9.2,76,0.03,-RA,,0.06,WeatherDisplay:10.37,2014-02-12 13:28:00,
2014-02-12 05:33:00,49.5,42.2,29.58,SSE,158,6.9,6.9,76,0.03,-RA,,0.06,WeatherDisplay:10.37,2014-02-12 13:33:00,
2014-02-12 05:38:00,49.5,41.5,29.58,SW,225,9.2,9.2,74,0.03,-RA,,0.06,WeatherDisplay:10.37,2014-02-12 13:38:00,
2014-02-12 05:43:00,49.5,41.9,29.58,SW,225,3.5,4.0,75,0.03,-RA,,0.06,WeatherDisplay:10.37,2014-02-12 13:43:00,
2014-02-12 05:48:00,49.3,41.3,29.59,NW,315,4.6,4.6,74,0.03,-RA,,0.06,WeatherDisplay:10.37,2014-02-12 13:48:00,
2014-02-12 05:53:00,49.1,41.2,29.59,ENE,68,4.6,4.6,74,0.00,-RA,,0.06,WeatherDisplay:10.37,2014-02-12 13:53:00,
2014-02-12 05:58:00,49.3,41.3,29.59,SSW,202,4.6,4.6,74,0.00,-RA,,0.06,WeatherDisplay:10.37,2014-02-12 13:58:00,
2014-02-12 06:03:00,49.1,41.2,29.59,SSW,202,6.1,6.1,74,0.00,-RA,,0.06,WeatherDisplay:10.37,2014-02-12 14:03:00,
2014-02-12 06:08:00,48.7,40.8,29.59,SSW,202,6.1,6.1,74,0.00,-RA,,0.06,WeatherDisplay:10.37,2014-02-12 14:08:00,
2014-02-12 06:13:00,48.7,40.8,29.59,SSW,202,5.8,5.8,74,0.00,-RA,,0.06,WeatherDisplay:10.37,2014-02-12 14:13:00,
2014-02-12 06:18:00,48.6,40.6,29.59,SW,225,9.7,9.7,74,0.00,-RA,,0.06,WeatherDisplay:10.37,2014-02-12 14:18:00,
2014-02-12 06:23:00,48.4,40.5,29.59,SSW,202,6.1,6.1,74,0.00,-RA,,0.06,WeatherDisplay:10.37,2014-02-12 14:23:00,
2014-02-12 06:28:00,48.4,40.8,29.62,SSE,158,8.1,8.1,75,0.00,-RA,,0.06,WeatherDisplay:10.37,2014-02-12 14:28:00,
2014-02-12 06:33:00,48.4,40.8,29.62,SSW,202,6.3,6.3,75,0.00,-RA,,0.06,WeatherDisplay:10.37,2014-02-12 14:33:00,
2014-02-12 06:38:00,48.4,40.8,29.62,South,180,4.6,4.6,75,0.00,-RA,,0.06,WeatherDisplay:10.37,2014-02-12 14:38:00,
2014-02-12 06:43:00,48.4,40.8,29.62,SW,225,3.5,3.7,75,0.00,-RA,,0.06,WeatherDisplay:10.37,2014-02-12 14:43:00,
2014-02-12 06:48:00,48.0,40.5,29.62,WSW,248,6.9,6.9,75,0.00,-RA,,0.06,WeatherDisplay:10.37,2014-02-12 14:48:00,
2014-02-12 06:53:00,48.4,40.8,29.62,SW,225,6.9,6.9,75,0.00,-RA,,0.06,WeatherDisplay:10.37,2014-02-12 14:53:00,
2014-02-12 06:58:00,48.4,40.8,29.62,South,180,5.8,5.8,75,0.00,-RA,,0.06,WeatherDisplay:10.37,2014-02-12 14:58:00,
2014-02-12 07:03:00,48.0,40.5,29.62,West,270,5.8,5.8,75,0.00,-RA,,0.06,WeatherDisplay:10.37,2014-02-12 15:03:00,
2014-02-12 07:08:00,48.0,40.8,29.62,SSW,202,8.1,8.1,76,0.00,-RA,,0.06,WeatherDisplay:10.37,2014-02-12 15:08:00,
2014-02-12 07:13:00,48.2,41.0,29.62,ESE,112,4.6,4.6,76,0.00,-RA,,0.06,WeatherDisplay:10.37,2014-02-12 15:13:00,
2014-02-12 07:18:00,48.4,41.2,29.62,SW,225,3.8,3.8,76,0.00,-RA,,0.06,WeatherDisplay:10.37,2014-02-12 15:18:00,
2014-02-12 07:23:00,48.0,40.8,29.62,SSE,158,5.8,5.8,76,0.00,-RA,,0.06,WeatherDisplay:10.37,2014-02-12 15:23:00,
2014-02-12 07:28:00,47.8,40.6,29.64,WSW,248,3.5,3.5,76,0.00,-RA,,0.06,WeatherDisplay:10.37,2014-02-12 15:28:00,
2014-02-12 07:33:00,48.4,41.5,29.64,West,270,6.9,6.9,77,0.00,-RA,,0.06,WeatherDisplay:10.37,2014-02-12 15:33:00,
2014-02-12 07:38:00,48.4,41.5,29.64,SSW,202,10.4,10.4,77,0.00,-RA,,0.06,WeatherDisplay:10.37,2014-02-12 15:38:00,
2014-02-12 07:43:00,48.6,41.7,29.64,SW,225,12.8,12.8,77,0.00,-RA,,0.06,WeatherDisplay:10.37,2014-02-12 15:43:00,
2014-02-12 07:48:00,48.7,41.5,29.64,SW,225,5.8,6.1,76,0.00,-RA,,0.06,WeatherDisplay:10.37,2014-02-12 15:48:00,
2014-02-12 07:53:00,48.7,41.5,29.64,ESE,112,2.3,4.7,76,0.00,-RA,,0.06,WeatherDisplay:10.37,2014-02-12 15:53:00,
2014-02-12 07:58:00,48.6,41.3,29.64,WNW,292,2.3,3.1,76,0.00,-RA,,0.06,WeatherDisplay:10.37,2014-02-12 15:58:00,
2014-02-12 08:03:00,48.4,41.2,29.64,SSW,202,5.8,5.8,76,0.00,-RA,,0.06,WeatherDisplay:10.37,2014-02-12 16:03:00,
2014-02-12 08:06:00,48.6,41.3,29.65,ESE,112,5.8,5.8,76,0.00,-RA,,0.06,WeatherDisplay:10.37,2014-02-12 16:06:00,
2014-02-12 08:11:00,48.7,41.5,29.65,WSW,248,5.8,6.1,76,0.00,-RA,,0.06,WeatherDisplay:10.37,2014-02-12 16:11:00,
2014-02-12 08:16:00,49.5,42.2,29.65,SW,225,9.2,9.2,76,0.00,-RA,,0.06,WeatherDisplay:10.37,2014-02-12 16:16:00,
2014-02-12 08:21:00,50.0,42.7,29.65,SSW,202,17.3,17.3,76,0.00,-RA,,0.06,WeatherDisplay:10.37,2014-02-12 16:21:00,
2014-02-12 08:26:00,50.2,42.6,29.65,SSE,158,10.4,10.4,75,0.00,-RA,,0.06,WeatherDisplay:10.37,2014-02-12 16:26:00,
2014-02-12 08:31:00,50.2,42.6,29.65,WSW,248,17.3,17.3,75,0.00,-RA,,0.06,WeatherDisplay:10.37,2014-02-12 16:31:00,
2014-02-12 08:36:00,50.5,42.9,29.65,WSW,248,11.5,11.5,75,0.00,-RA,,0.06,WeatherDisplay:10.37,2014-02-12 16:36:00,
2014-02-12 08:41:00,50.5,42.9,29.65,SW,225,16.1,16.1,75,0.00,-RA,,0.06,WeatherDisplay:10.37,2014-02-12 16:41:00,
2014-02-12 08:46:00,50.7,43.1,29.65,WSW,248,6.9,8.6,75,0.00,-RA,,0.06,WeatherDisplay:10.37,2014-02-12 16:46:00,
2014-02-12 08:51:00,50.7,42.7,29.65,SW,225,15.0,15.0,74,0.00,-RA,,0.06,WeatherDisplay:10.37,2014-02-12 16:51:00,
2014-02-12 08:56:00,50.7,42.7,29.65,SW,225,13.9,13.9,74,0.00,-RA,,0.06,WeatherDisplay:10.37,2014-02-12 16:56:00,
2014-02-12 09:01:00,50.9,42.9,29.65,SW,225,10.6,10.6,74,0.00,-RA,,0.06,WeatherDisplay:10.37,2014-02-12 17:01:00,
2014-02-12 09:06:00,50.9,42.9,29.66,SW,225,11.5,11.5,74,0.00,-RA,,0.06,WeatherDisplay:10.37,2014-02-12 17:06:00,
2014-02-12 09:11:00,50.7,42.7,29.66,South,180,15.0,15.0,74,0.00,-RA,,0.06,WeatherDisplay:10.37,2014-02-12 17:11:00,
2014-02-12 09:16:00,50.9,43.3,29.66,SSW,202,17.6,17.6,75,0.00,-RA,,0.06,WeatherDisplay:10.37,2014-02-12 17:16:00,
2014-02-12 09:21:00,51.3,43.6,29.66,SW,225,15.0,15.0,75,0.00,-RA,,0.06,WeatherDisplay:10.37,2014-02-12 17:21:00,
2014-02-12 09:26:00,51.4,43.4,29.67,SSW,202,11.8,11.8,74,0.00,-RA,,0.06,WeatherDisplay:10.37,2014-02-12 17:26:00,
2014-02-12 09:31:00,51.6,43.6,29.67,WNW,292,10.4,10.4,74,0.00,-RA,,0.06,WeatherDisplay:10.37,2014-02-12 17:31:00,
2014-02-12 09:36:00,52.0,43.9,29.67,SW,225,9.2,9.2,74,0.00,-RA,,0.06,WeatherDisplay:10.37,2014-02-12 17:36:00,
2014-02-12 09:41:00,52.7,44.6,29.67,SSW,202,16.1,16.1,74,0.00,-RA,,0.06,WeatherDisplay:10.37,2014-02-12 17:41:00,
2014-02-12 09:46:00,53.1,45.0,29.69,SW,225,11.5,11.5,74,0.00,-RA,,0.06,WeatherDisplay:10.37,2014-02-12 17:46:00,
2014-02-12 09:51:00,53.4,45.0,29.69,SW,225,19.6,19.6,73,0.00,-RA,,0.06,WeatherDisplay:10.37,2014-02-12 17:51:00,
2014-02-12 09:56:00,53.4,45.0,29.69,WSW,248,10.4,10.4,73,0.00,-RA,,0.06,WeatherDisplay:10.37,2014-02-12 17:56:00,
2014-02-12 10:01:00,53.6,44.8,29.69,SSW,202,13.8,13.8,72,0.00,-RA,,0.06,WeatherDisplay:10.37,2014-02-12 18:01:00,
2014-02-12 10:06:00,54.0,45.1,29.69,SW,225,12.7,12.7,72,0.00,-RA,,0.06,WeatherDisplay:10.37,2014-02-12 18:06:00,
2014-02-12 10:11:00,54.1,45.3,29.69,SSW,202,15.0,15.0,72,0.00,-RA,,0.06,WeatherDisplay:10.37,2014-02-12 18:11:00,
2014-02-12 10:16:00,54.3,45.1,29.69,South,180,8.1,10.4,71,0.00,-RA,,0.06,WeatherDisplay:10.37,2014-02-12 18:16:00,
2014-02-12 10:21:00,54.5,44.9,29.69,SW,225,18.4,18.4,70,0.00,-RA,,0.06,WeatherDisplay:10.37,2014-02-12 18:21:00,
2014-02-12 10:26:00,54.3,45.1,29.72,SW,225,9.2,11.2,71,0.00,-RA,,0.06,WeatherDisplay:10.37,2014-02-12 18:26:00,
2014-02-12 10:31:00,54.3,45.1,29.72,WSW,248,17.3,17.3,71,0.00,-RA,,0.06,WeatherDisplay:10.37,2014-02-12 18:31:00,
2014-02-12 10:36:00,54.5,44.9,29.72,SSW,202,12.7,12.7,70,0.00,-RA,,0.06,WeatherDisplay:10.37,2014-02-12 18:36:00,
2014-02-12 10:41:00,54.9,45.6,29.72,SSW,202,12.7,12.7,71,0.00,-RA,,0.06,WeatherDisplay:10.37,2014-02-12 18:41:00,
2014-02-12 10:46:00,54.9,45.3,29.73,West,270,9.2,9.5,70,0.00,-RA,,0.06,WeatherDisplay:10.37,2014-02-12 18:46:00,
2014-02-12 10:51:00,55.2,45.6,29.73,SSW,202,10.4,10.4,70,0.00,-RA,,0.06,WeatherDisplay:10.37,2014-02-12 18:51:00,
2014-02-12 10:56:00,55.6,45.9,29.73,SSW,202,13.8,13.8,70,0.00,-RA,,0.06,WeatherDisplay:10.37,2014-02-12 18:56:00,
2014-02-12 11:01:00,55.8,45.7,29.73,SSW,202,16.1,16.1,69,0.00,-RA,,0.06,WeatherDisplay:10.37,2014-02-12 19:01:00,
2014-02-12 11:06:00,55.8,45.7,29.73,WSW,248,17.3,17.3,69,0.00,-RA,,0.06,WeatherDisplay:10.37,2014-02-12 19:06:00,
2014-02-12 11:11:00,55.9,45.5,29.73,SW,225,19.6,19.6,68,0.00,-RA,,0.06,WeatherDisplay:10.37,2014-02-12 19:11:00,
2014-02-12 11:16:00,56.3,45.9,29.73,WSW,248,16.1,16.1,68,0.00,-RA,,0.06,WeatherDisplay:10.37,2014-02-12 19:16:00,
2014-02-12 11:21:00,56.3,45.9,29.73,SSW,202,12.7,13.9,68,0.00,-RA,,0.06,WeatherDisplay:10.37,2014-02-12 19:21:00,
2014-02-12 11:26:00,56.7,45.8,29.75,SW,225,18.4,18.4,67,0.00,-RA,,0.06,WeatherDisplay:10.37,2014-02-12 19:26:00,
2014-02-12 11:31:00,56.5,45.7,29.75,SSW,202,12.8,12.9,67,0.00,-RA,,0.06,WeatherDisplay:10.37,2014-02-12 19:31:00,
2014-02-12 11:36:00,56.7,45.8,29.75,SSW,202,15.1,15.1,67,0.00,-RA,,0.06,WeatherDisplay:10.37,2014-02-12 19:36:00,
2014-02-12 11:41:00,56.5,45.7,29.75,South,180,13.8,13.8,67,0.00,-RA,,0.06,WeatherDisplay:10.37,2014-02-12 19:41:00,
2014-02-12 11:46:00,57.0,46.6,29.75,SW,225,19.3,19.3,68,0.00,-RA,,0.06,WeatherDisplay:10.37,2014-02-12 19:46:00,
2014-02-12 11:51:00,57.0,46.6,29.75,WSW,248,13.8,13.8,68,0.00,-RA,,0.06,WeatherDisplay:10.37,2014-02-12 19:51:00,
2014-02-12 11:56:00,57.0,46.6,29.75,WSW,248,11.5,11.5,68,0.00,-RA,,0.06,WeatherDisplay:10.37,2014-02-12 19:56:00,
2014-02-12 12:01:00,57.0,46.2,29.75,WSW,248,13.8,13.8,67,0.00,-RA,,0.06,WeatherDisplay:10.37,2014-02-12 20:01:00,
2014-02-12 12:06:00,57.2,46.7,29.74,WSW,248,14.1,14.1,68,0.00,-RA,,0.06,WeatherDisplay:10.37,2014-02-12 20:06:00,
2014-02-12 12:11:00,57.2,46.7,29.74,WSW,248,13.8,13.8,68,0.00,-RA,,0.06,WeatherDisplay:10.37,2014-02-12 20:11:00,
2014-02-12 12:16:00,57.7,46.5,29.74,SSW,202,15.0,15.0,66,0.00,-RA,,0.06,WeatherDisplay:10.37,2014-02-12 20:16:00,
2014-02-12 12:21:00,57.9,46.6,29.74,WSW,248,19.6,19.6,66,0.00,-RA,,0.06,WeatherDisplay:10.37,2014-02-12 20:21:00,
2014-02-12 12:26:00,58.1,46.4,29.75,SW,225,13.8,13.8,65,0.00,-RA,,0.06,WeatherDisplay:10.37,2014-02-12 20:26:00,
2014-02-12 12:31:00,57.9,46.2,29.75,WSW,248,13.8,13.8,65,0.00,-RA,,0.06,WeatherDisplay:10.37,2014-02-12 20:31:00,
2014-02-12 12:36:00,57.9,46.2,29.75,WSW,248,11.5,12.4,65,0.00,-RA,,0.06,WeatherDisplay:10.37,2014-02-12 20:36:00,
2014-02-12 12:41:00,57.9,46.2,29.75,SW,225,16.1,16.1,65,0.00,-RA,,0.06,WeatherDisplay:10.37,2014-02-12 20:41:00,
2014-02-12 12:46:00,57.9,46.2,29.74,SSW,202,10.4,12.7,65,0.00,-RA,,0.06,WeatherDisplay:10.37,2014-02-12 20:46:00,
2014-02-12 12:51:00,58.1,46.4,29.74,SW,225,16.7,16.7,65,0.00,-RA,,0.06,WeatherDisplay:10.37,2014-02-12 20:51:00,
2014-02-12 12:57:00,58.1,46.0,29.74,SSW,202,14.7,14.7,64,0.00,-RA,,0.06,WeatherDisplay:10.37,2014-02-12 20:57:00,
2014-02-12 13:02:00,58.1,46.0,29.74,SSW,202,13.8,13.8,64,0.00,-RA,,0.06,WeatherDisplay:10.37,2014-02-12 21:02:00,
2014-02-12 13:07:00,58.3,46.2,29.74,SW,225,11.8,11.8,64,0.00,-RA,,0.06,WeatherDisplay:10.37,2014-02-12 21:07:00,
2014-02-12 13:12:00,58.5,46.3,29.74,WSW,248,11.8,11.8,64,0.00,-RA,,0.06,WeatherDisplay:10.37,2014-02-12 21:12:00,
2014-02-12 13:17:00,58.5,46.3,29.74,SSW,202,18.4,18.4,64,0.00,-RA,,0.06,WeatherDisplay:10.37,2014-02-12 21:17:00,
2014-02-12 13:22:00,58.3,46.2,29.74,SSW,202,16.1,16.1,64,0.00,-RA,,0.06,WeatherDisplay:10.37,2014-02-12 21:22:00,
2014-02-12 13:29:00,58.6,46.1,29.74,WSW,248,15.1,15.1,63,0.00,-RA,,0.06,WeatherDisplay:10.37,2014-02-12 21:29:00,
2014-02-12 13:34:00,58.6,46.1,29.74,SSW,202,15.2,15.2,63,0.00,-RA,,0.06,WeatherDisplay:10.37,2014-02-12 21:34:00,
2014-02-12 13:39:00,58.8,46.7,29.74,SW,225,12.9,12.9,64,0.00,-RA,,0.06,WeatherDisplay:10.37,2014-02-12 21:39:00,
2014-02-12 13:44:00,58.8,45.8,29.74,SSW,202,9.2,9.2,62,0.00,-RA,,0.06,WeatherDisplay:10.37,2014-02-12 21:44:00,
2014-02-12 13:49:00,59.2,46.2,29.75,WSW,248,16.1,16.1,62,0.00,-RA,,0.06,WeatherDisplay:10.37,2014-02-12 21:49:00,
2014-02-12 13:54:00,59.2,46.2,29.75,SW,225,18.4,18.4,62,0.00,-RA,,0.06,WeatherDisplay:10.37,2014-02-12 21:54:00,
2014-02-12 13:59:00,59.0,46.0,29.75,WSW,248,15.0,15.0,62,0.00,-RA,,0.06,WeatherDisplay:10.37,2014-02-12 21:59:00,
2014-02-12 14:04:00,59.0,46.0,29.75,SW,225,12.7,12.7,62,0.00,-RA,,0.06,WeatherDisplay:10.37,2014-02-12 22:04:00,
2014-02-12 14:09:00,58.8,45.4,29.75,SW,225,15.0,15.0,61,0.00,-RA,,0.06,WeatherDisplay:10.37,2014-02-12 22:09:00,
2014-02-12 14:14:00,58.6,45.7,29.75,SSW,202,15.0,15.0,62,0.00,-RA,,0.06,WeatherDisplay:10.37,2014-02-12 22:14:00,
2014-02-12 14:19:00,58.5,45.5,29.75,SSW,202,11.5,11.5,62,0.00,-RA,,0.06,WeatherDisplay:10.37,2014-02-12 22:19:00,
2014-02-12 14:24:00,58.5,45.5,29.75,SSW,202,9.2,9.2,62,0.00,-RA,,0.06,WeatherDisplay:10.37,2014-02-12 22:24:00,
2014-02-12 14:29:00,58.8,45.4,29.76,SSW,202,10.8,10.8,61,0.00,-RA,,0.06,WeatherDisplay:10.37,2014-02-12 22:29:00,
2014-02-12 14:34:00,58.5,45.5,29.76,SSW,202,5.8,8.3,62,0.00,-RA,,0.06,WeatherDisplay:10.37,2014-02-12 22:34:00,
2014-02-12 14:39:00,58.5,45.1,29.76,SW,225,10.4,10.4,61,0.00,-RA,,0.06,WeatherDisplay:10.37,2014-02-12 22:39:00,
2014-02-12 14:44:00,58.5,45.1,29.76,SSW,202,9.0,9.0,61,0.00,-RA,,0.06,WeatherDisplay:10.37,2014-02-12 22:44:00,
2014-02-12 14:49:00,58.6,45.2,29.75,SW,225,10.4,10.4,61,0.00,-RA,,0.06,WeatherDisplay:10.37,2014-02-12 22:49:00,
2014-02-12 14:54:00,58.6,45.2,29.75,WSW,248,8.9,8.9,61,0.00,-RA,,0.06,WeatherDisplay:10.37,2014-02-12 22:54:00,
2014-02-12 14:59:00,58.6,45.2,29.75,SW,225,16.1,16.1,61,0.00,-RA,,0.06,WeatherDisplay:10.37,2014-02-12 22:59:00,
2014-02-12 15:04:00,58.8,45.4,29.75,WSW,248,8.1,8.1,61,0.00,-RA,,0.06,WeatherDisplay:10.37,2014-02-12 23:04:00,
2014-02-12 15:09:00,58.5,45.1,29.77,SSW,202,11.5,11.5,61,0.00,-RA,,0.06,WeatherDisplay:10.37,2014-02-12 23:09:00,
2014-02-12 15:14:00,58.5,44.6,29.77,SSW,202,5.8,7.9,60,0.00,-RA,,0.06,WeatherDisplay:10.37,2014-02-12 23:14:00,
2014-02-12 15:19:00,58.5,44.6,29.77,SSW,202,11.5,11.5,60,0.00,-RA,,0.06,WeatherDisplay:10.37,2014-02-12 23:19:00,
2014-02-12 15:24:00,58.5,44.6,29.77,SW,225,4.6,7.9,60,0.00,-RA,,0.06,WeatherDisplay:10.37,2014-02-12 23:24:00,
2014-02-12 15:29:00,58.5,44.2,29.75,WSW,248,13.8,13.8,59,0.00,-RA,,0.06,WeatherDisplay:10.37,2014-02-12 23:29:00,
2014-02-12 15:34:00,58.3,44.0,29.75,SW,225,10.4,10.4,59,0.00,-RA,,0.06,WeatherDisplay:10.37,2014-02-12 23:34:00,
2014-02-12 15:39:00,58.1,43.8,29.75,SE,135,12.7,12.7,59,0.00,-RA,,0.06,WeatherDisplay:10.37,2014-02-12 23:39:00,
2014-02-12 15:44:00,57.9,43.7,29.76,SW,225,9.2,9.2,59,0.00,-RA,,0.06,WeatherDisplay:10.37,2014-02-12 23:44:00,
2014-02-12 15:49:00,57.9,43.7,29.76,SW,225,11.5,11.5,59,0.00,-RA,,0.06,WeatherDisplay:10.37,2014-02-12 23:49:00,
2014-02-12 15:54:00,58.1,43.8,29.76,SSW,202,6.9,7.7,59,0.00,-RA,,0.06,WeatherDisplay:10.37,2014-02-12 23:54:00,
2014-02-12 15:59:00,57.7,43.5,29.76,SSW,202,11.5,11.5,59,0.00,-RA,,0.06,WeatherDisplay:10.37,2014-02-12 23:59:00,
2014-02-12 16:04:00,57.4,43.2,29.75,SSW,202,17.3,17.3,59,0.00,-RA,,0.06,WeatherDisplay:10.37,2014-02-13 00:04:00,
2014-02-12 16:10:00,57.2,43.0,29.75,SSW,202,9.5,9.5,59,0.00,-RA,,0.06,WeatherDisplay:10.37,2014-02-13 00:10:00,
2014-02-12 16:15:00,57.4,43.2,29.75,SW,225,9.1,9.1,59,0.00,-RA,,0.06,WeatherDisplay:10.37,2014-02-13 00:15:00,
2014-02-12 16:20:00,57.0,42.8,29.75,SW,225,7.2,7.2,59,0.00,-RA,,0.06,WeatherDisplay:10.37,2014-02-13 00:20:00,
2014-02-12 16:25:00,56.5,42.3,29.75,SW,225,11.5,11.5,59,0.00,-RA,,0.06,WeatherDisplay:10.37,2014-02-13 00:25:00,
2014-02-12 16:30:00,56.5,42.8,29.75,SSW,202,11.7,11.7,60,0.00,-RA,,0.06,WeatherDisplay:10.37,2014-02-13 00:30:00,
2014-02-12 16:35:00,56.1,42.4,29.75,SW,225,11.5,11.5,60,0.00,-RA,,0.06,WeatherDisplay:10.37,2014-02-13 00:35:00,
2014-02-12 16:40:00,55.9,42.2,29.75,WSW,248,12.7,12.7,60,0.00,-RA,,0.06,WeatherDisplay:10.37,2014-02-13 00:40:00,
2014-02-12 16:45:00,55.6,41.9,29.75,SW,225,6.9,6.9,60,0.00,-RA,,0.06,WeatherDisplay:10.37,2014-02-13 00:45:00,
2014-02-12 16:50:00,55.4,41.7,29.75,South,180,11.8,11.8,60,0.00,-RA,,0.06,WeatherDisplay:10.37,2014-02-13 00:50:00,
2014-02-12 16:55:00,55.0,41.8,29.75,SSW,202,9.2,9.2,61,0.00,-RA,,0.06,WeatherDisplay:10.37,2014-02-13 00:55:00,
2014-02-12 17:00:00,54.9,41.7,29.75,SE,135,10.4,10.4,61,0.00,-RA,,0.06,WeatherDisplay:10.37,2014-02-13 01:00:00,
2014-02-12 17:05:00,54.9,41.7,29.74,SW,225,10.4,10.4,61,0.00,-RA,,0.06,WeatherDisplay:10.37,2014-02-13 01:05:00,
2014-02-12 17:10:00,54.5,41.3,29.74,SSE,158,9.2,9.2,61,0.00,-RA,,0.06,WeatherDisplay:10.37,2014-02-13 01:10:00,
2014-02-12 17:15:00,54.1,41.0,29.74,SSW,202,8.2,8.2,61,0.00,-RA,,0.06,WeatherDisplay:10.37,2014-02-13 01:15:00,
2014-02-12 17:20:00,54.1,41.0,29.74,WSW,248,10.4,10.4,61,0.00,-RA,,0.06,WeatherDisplay:10.37,2014-02-13 01:20:00,
2014-02-12 17:25:00,53.6,40.9,29.74,SSW,202,10.4,10.4,62,0.00,-RA,,0.06,WeatherDisplay:10.37,2014-02-13 01:25:00,
2014-02-12 17:30:00,53.4,41.1,29.74,South,191,8.0,16.0,63,0.00,-RA,-RA,0.05,WeatherDisplay:10.37,2014-02-13 01:30:00,
2014-02-12 17:35:00,52.9,41.0,29.74,SSW,202,12.5,12.5,64,0.00,-RA,,0.06,WeatherDisplay:10.37,2014-02-13 01:35:00,
2014-02-12 17:40:00,52.9,41.0,29.74,SSW,205,8.0,13.0,64,0.00,-RA,-RA,0.05,WeatherDisplay:10.37,2014-02-13 01:40:00,
2014-02-12 17:45:00,52.3,40.5,29.74,SW,225,15.0,15.0,64,0.00,-RA,,0.06,WeatherDisplay:10.37,2014-02-13 01:45:00,
2014-02-12 17:50:00,52.2,40.7,29.74,SSE,158,10.4,10.4,65,0.00,-RA,,0.06,WeatherDisplay:10.37,2014-02-13 01:50:00,
2014-02-12 17:55:00,52.0,40.6,29.74,SSW,202,9.2,9.2,65,0.00,-RA,,0.06,WeatherDisplay:10.37,2014-02-13 01:55:00,
2014-02-12 18:00:00,51.6,40.6,29.74,WSW,248,9.2,9.2,66,0.00,-RA,,0.06,WeatherDisplay:10.37,2014-02-13 02:00:00,
2014-02-12 18:05:00,51.4,40.5,29.75,SSW,202,8.3,8.3,66,0.00,-RA,,0.06,WeatherDisplay:10.37,2014-02-13 02:05:00,
2014-02-12 18:10:00,51.4,40.5,29.75,SW,225,8.1,8.1,66,0.00,-RA,,0.06,WeatherDisplay:10.37,2014-02-13 02:10:00,
2014-02-12 18:15:00,51.3,40.3,29.75,SSW,202,11.5,11.5,66,0.00,-RA,,0.06,WeatherDisplay:10.37,2014-02-13 02:15:00,
2014-02-12 18:20:00,51.1,40.1,29.75,SSW,202,7.2,7.4,66,0.00,-RA,,0.06,WeatherDisplay:10.37,2014-02-13 02:20:00,
2014-02-12 18:25:00,50.9,39.9,29.75,SSW,202,6.9,6.9,66,0.00,-RA,,0.06,WeatherDisplay:10.37,2014-02-13 02:25:00,
2014-02-12 18:30:00,50.4,39.4,29.75,SSW,202,6.9,6.9,66,0.00,-RA,,0.06,WeatherDisplay:10.37,2014-02-13 02:30:00,
2014-02-12 18:35:00,50.2,39.6,29.75,SSW,202,9.2,9.2,67,0.00,-RA,,0.06,WeatherDisplay:10.37,2014-02-13 02:35:00,
2014-02-12 18:40:00,50.5,40.0,29.75,SW,225,9.2,9.2,67,0.00,-RA,,0.06,WeatherDisplay:10.37,2014-02-13 02:40:00,
2014-02-12 18:45:00,50.5,40.0,29.75,South,180,10.8,10.8,67,0.00,-RA,,0.06,WeatherDisplay:10.37,2014-02-13 02:45:00,
2014-02-12 18:50:00,50.7,40.2,29.75,SSW,202,15.0,15.0,67,0.00,-RA,,0.06,WeatherDisplay:10.37,2014-02-13 02:50:00,
2014-02-12 18:55:00,51.3,40.7,29.75,WSW,248,12.7,12.7,67,0.00,-RA,,0.06,WeatherDisplay:10.37,2014-02-13 02:55:00,
2014-02-12 19:00:00,51.3,40.3,29.75,SW,225,8.1,8.9,66,0.00,-RA,,0.06,WeatherDisplay:10.37,2014-02-13 03:00:00,
2014-02-12 19:05:00,51.3,40.3,29.74,WNW,292,6.9,6.9,66,0.00,-RA,,0.06,WeatherDisplay:10.37,2014-02-13 03:05:00,
2014-02-12 19:10:00,51.3,40.3,29.74,SSW,202,8.1,8.1,66,0.00,-RA,,0.06,WeatherDisplay:10.37,2014-02-13 03:10:00,
2014-02-12 19:15:00,51.1,40.1,29.74,WSW,248,4.6,4.6,66,0.00,-RA,,0.06,WeatherDisplay:10.37,2014-02-13 03:15:00,
2014-02-12 19:20:00,50.7,39.8,29.74,SW,225,4.6,4.6,66,0.00,-RA,,0.06,WeatherDisplay:10.37,2014-02-13 03:20:00,
2014-02-12 19:25:00,50.5,39.6,29.74,WSW,248,8.1,8.1,66,0.00,-RA,,0.06,WeatherDisplay:10.37,2014-02-13 03:25:00,
2014-02-12 19:30:00,51.3,40.7,29.74,SSW,202,12.5,12.5,67,0.00,-RA,,0.06,WeatherDisplay:10.37,2014-02-13 03:30:00,
2014-02-12 19:35:00,51.4,40.5,29.74,SW,225,12.7,12.7,66,0.00,-RA,,0.06,WeatherDisplay:10.37,2014-02-13 03:35:00,
2014-02-12 19:40:00,51.4,40.5,29.74,West,270,9.2,9.2,66,0.00,-RA,,0.06,WeatherDisplay:10.37,2014-02-13 03:40:00,
2014-02-12 19:45:00,51.4,40.5,29.75,WSW,248,11.5,11.5,66,0.00,-RA,,0.06,WeatherDisplay:10.37,2014-02-13 03:45:00,
2014-02-12 19:50:00,51.1,40.1,29.75,WSW,248,6.9,6.9,66,0.00,-RA,,0.06,WeatherDisplay:10.37,2014-02-13 03:50:00,
2014-02-12 19:55:00,50.7,39.8,29.75,SW,225,5.8,5.8,66,0.00,-RA,,0.06,WeatherDisplay:10.37,2014-02-13 03:55:00,
2014-02-12 20:00:00,50.7,39.8,29.75,SW,225,4.6,4.7,66,0.00,-RA,,0.06,WeatherDisplay:10.37,2014-02-13 04:00:00,
2014-02-12 20:05:00,50.5,39.6,29.74,SW,225,3.5,3.9,66,0.00,-RA,,0.06,WeatherDisplay:10.37,2014-02-13 04:05:00,
2014-02-12 20:10:00,50.2,39.3,29.74,SSW,202,2.3,2.3,66,0.00,-RA,,0.06,WeatherDisplay:10.37,2014-02-13 04:10:00,
2014-02-12 20:15:00,49.8,39.3,29.74,WSW,248,3.5,3.5,67,0.00,-RA,,0.06,WeatherDisplay:10.37,2014-02-13 04:15:00,
2014-02-12 20:20:00,49.5,39.0,29.74,SSW,202,1.2,1.2,67,0.00,-RA,,0.06,WeatherDisplay:10.37,2014-02-13 04:20:00,
2014-02-12 20:25:00,49.3,38.8,29.74,ESE,112,1.2,1.2,67,0.00,-RA,,0.06,WeatherDisplay:10.37,2014-02-13 04:25:00,
2014-02-12 20:30:00,49.3,39.2,29.74,SW,225,6.7,6.7,68,0.00,-RA,,0.06,WeatherDisplay:10.37,2014-02-13 04:30:00,
2014-02-12 20:35:00,49.3,39.2,29.74,WSW,248,5.8,5.8,68,0.00,-RA,,0.06,WeatherDisplay:10.37,2014-02-13 04:35:00,
2014-02-12 20:40:00,49.8,40.1,29.74,SW,225,4.6,4.6,69,0.00,-RA,,0.06,WeatherDisplay:10.37,2014-02-13 04:40:00,
2014-02-12 20:45:00,49.8,40.1,29.75,SW,225,8.1,8.1,69,0.00,-RA,,0.06,WeatherDisplay:10.37,2014-02-13 04:45:00,
2014-02-12 20:50:00,49.8,40.1,29.75,SSW,202,6.9,6.9,69,0.00,-RA,,0.06,WeatherDisplay:10.37,2014-02-13 04:50:00,
2014-02-12 20:55:00,49.8,40.1,29.75,SSE,158,6.9,6.9,69,0.00,-RA,,0.06,WeatherDisplay:10.37,2014-02-13 04:55:00,
2014-02-12 21:00:00,49.8,40.1,29.75,SSE,158,3.5,3.5,69,0.00,-RA,,0.06,WeatherDisplay:10.37,2014-02-13 05:00:00,
2014-02-12 21:01:00,49.8,40.1,29.75,SSE,158,3.5,3.5,69,0.00,-RA,,0.06,WeatherDisplay:10.37,2014-02-13 05:01:00,
2014-02-12 21:02:00,49.8,40.1,29.75,SSE,158,2.3,3.5,69,0.00,-RA,,0.06,WeatherDisplay:10.37,2014-02-13 05:02:00,
2014-02-12 21:07:00,49.8,40.1,29.75,SSW,202,6.9,6.9,69,0.00,-RA,,0.06,WeatherDisplay:10.37,2014-02-13 05:07:00,
2014-02-12 21:12:00,49.8,40.1,29.75,SSW,202,4.7,4.7,69,0.00,-RA,,0.06,WeatherDisplay:10.37,2014-02-13 05:12:00,
2014-02-12 21:17:00,49.6,39.9,29.75,WSW,248,4.6,4.6,69,0.00,-RA,,0.06,WeatherDisplay:10.37,2014-02-13 05:17:00,
2014-02-12 21:22:00,49.8,40.1,29.75,SSW,202,3.5,3.5,69,0.00,-RA,,0.06,WeatherDisplay:10.37,2014-02-13 05:22:00,
2014-02-12 21:27:00,49.5,39.7,29.74,WSW,248,2.3,2.4,69,0.00,-RA,,0.06,WeatherDisplay:10.37,2014-02-13 05:27:00,
2014-02-12 21:32:00,49.5,39.7,29.74,SSW,202,1.5,2.0,69,0.00,-RA,,0.06,WeatherDisplay:10.37,2014-02-13 05:32:00,
2014-02-12 21:37:00,49.3,39.5,29.74,East,90,2.4,2.4,69,0.00,-RA,,0.06,WeatherDisplay:10.37,2014-02-13 05:37:00,
2014-02-12 21:42:00,49.5,39.7,29.74,SSW,202,1.2,1.4,69,0.00,-RA,,0.06,WeatherDisplay:10.37,2014-02-13 05:42:00,
2014-02-12 21:47:00,49.1,39.4,29.75,South,180,2.3,2.3,69,0.00,-RA,,0.06,WeatherDisplay:10.37,2014-02-13 05:47:00,
2014-02-12 21:52:00,48.9,39.2,29.75,SSW,202,2.3,2.3,69,0.00,-RA,,0.06,WeatherDisplay:10.37,2014-02-13 05:52:00,
2014-02-12 21:57:00,49.1,39.7,29.75,SW,225,1.2,1.2,70,0.00,-RA,,0.06,WeatherDisplay:10.37,2014-02-13 05:57:00,
2014-02-12 22:02:00,49.1,39.7,29.75,ESE,112,2.3,2.3,70,0.00,-RA,,0.06,WeatherDisplay:10.37,2014-02-13 06:02:00,
2014-02-12 22:07:00,48.7,39.4,29.74,NE,45,1.2,1.4,70,0.00,-RA,,0.06,WeatherDisplay:10.37,2014-02-13 06:07:00,
2014-02-12 22:12:00,48.6,39.2,29.74,SSE,158,1.2,1.2,70,0.00,-RA,,0.06,WeatherDisplay:10.37,2014-02-13 06:12:00,
2014-02-12 22:17:00,48.2,38.9,29.74,SE,135,1.2,1.2,70,0.00,-RA,,0.06,WeatherDisplay:10.37,2014-02-13 06:17:00,
2014-02-12 22:22:00,48.0,38.7,29.74,NE,45,0.0,0.5,70,0.00,-RA,,0.06,WeatherDisplay:10.37,2014-02-13 06:22:00,
2014-02-12 22:27:00,47.7,38.4,29.75,North,0,1.2,1.2,70,0.00,-RA,,0.06,WeatherDisplay:10.37,2014-02-13 06:27:00,
2014-02-12 22:32:00,47.1,38.2,29.75,SE,135,1.2,1.2,71,0.00,-RA,,0.06,WeatherDisplay:10.37,2014-02-13 06:32:00,
2014-02-12 22:37:00,46.8,37.9,29.75,ESE,112,2.3,2.3,71,0.00,-RA,,0.06,WeatherDisplay:10.37,2014-02-13 06:37:00,
2014-02-12 22:42:00,46.6,38.0,29.75,SE,135,5.3,5.3,72,0.00,-RA,,0.06,WeatherDisplay:10.37,2014-02-13 06:42:00,
2014-02-12 22:47:00,46.6,38.0,29.74,ESE,112,3.8,3.8,72,0.00,-RA,,0.06,WeatherDisplay:10.37,2014-02-13 06:47:00,
2014-02-12 22:52:00,46.4,37.9,29.74,SE,135,2.9,2.9,72,0.00,-RA,,0.06,WeatherDisplay:10.37,2014-02-13 06:52:00,
2014-02-12 22:57:00,46.2,38.0,29.74,East,90,2.3,2.3,73,0.00,-RA,,0.06,WeatherDisplay:10.37,2014-02-13 06:57:00,
2014-02-12 23:02:00,46.0,37.9,29.74,SSW,202,4.3,4.3,73,0.00,-RA,,0.06,WeatherDisplay:10.37,2014-02-13 07:02:00,
2014-02-12 23:07:00,45.7,37.5,29.73,ESE,112,6.9,6.9,73,0.00,-RA,,0.06,WeatherDisplay:10.37,2014-02-13 07:07:00,
2014-02-12 23:12:00,45.7,37.9,29.73,SE,135,4.6,4.6,74,0.00,-RA,,0.06,WeatherDisplay:10.37,2014-02-13 07:12:00,
2014-02-12 23:17:00,45.5,37.7,29.73,SE,135,6.9,6.9,74,0.00,-RA,,0.06,WeatherDisplay:10.37,2014-02-13 07:17:00,
2014-02-12 23:22:00,45.5,38.0,29.73,SSE,158,4.6,4.6,75,0.00,-RA,,0.06,WeatherDisplay:10.37,2014-02-13 07:22:00,
2014-02-12 23:27:00,45.5,38.0,29.72,SSE,158,6.9,6.9,75,0.00,-RA,,0.06,WeatherDisplay:10.37,2014-02-13 07:27:00,
2014-02-12 23:32:00,45.5,38.4,29.72,SE,135,3.5,3.8,76,0.00,-RA,,0.06,WeatherDisplay:10.37,2014-02-13 07:32:00,
2014-02-12 23:37:00,45.5,38.4,29.72,ESE,112,3.5,3.5,76,0.00,-RA,,0.06,WeatherDisplay:10.37,2014-02-13 07:37:00,
2014-02-12 23:42:00,45.1,38.0,29.72,SSE,158,5.6,5.6,76,0.00,-RA,,0.06,WeatherDisplay:10.37,2014-02-13 07:42:00,
2014-02-12 23:47:00,45.1,38.0,29.71,SE,135,4.6,4.6,76,0.00,-RA,,0.06,WeatherDisplay:10.37,2014-02-13 07:47:00,
2014-02-12 23:52:00,45.1,38.0,29.71,SE,135,6.6,6.6,76,0.00,-RA,,0.06,WeatherDisplay:10.37,2014-02-13 07:52:00,
2014-02-12 23:57:00,45.5,38.7,29.71,ENE,68,4.6,4.6,77,0.00,-RA,,0.06,WeatherDisplay:10.37,2014-02-13 07:57:00,